sensor_id;sensor_type;location;lat;lon;timestamp;pressure;altitude;pressure_sealevel;temperature;humidity
21240;BME280;10778;48.962;9.018;2023-06-22T00:02:16;99074.41;;;19.45;100.00
21240;BME280;10778;48.962;9.018;2023-06-22T00:04:42;99076.84;;;19.40;100.00
21240;BME280;10778;48.962;9.018;2023-06-22T00:07:08;99073.56;;;19.38;100.00
21240;BME280;10778;48.962;9.018;2023-06-22T00:09:34;99064.53;;;19.39;100.00
21240;BME280;10778;48.962;9.018;2023-06-22T00:12:01;99062.88;;;19.38;100.00
21240;BME280;10778;48.962;9.018;2023-06-22T00:14:27;99060.22;;;19.38;100.00
21240;BME280;10778;48.962;9.018;2023-06-22T00:16:53;99057.78;;;19.43;100.00
21240;BME280;10778;48.962;9.018;2023-06-22T00:19:23;99057.53;;;19.38;100.00
21240;BME280;10778;48.962;9.018;2023-06-22T00:21:50;99053.19;;;19.30;100.00
21240;BME280;10778;48.962;9.018;2023-06-22T00:24:22;99056.66;;;19.31;100.00
21240;BME280;10778;48.962;9.018;2023-06-22T00:26:48;99068.75;;;19.27;100.00
21240;BME280;10778;48.962;9.018;2023-06-22T00:29:15;99068.31;;;19.23;100.00
21240;BME280;10778;48.962;9.018;2023-06-22T00:31:41;99058.66;;;19.22;100.00
21240;BME280;10778;48.962;9.018;2023-06-22T00:34:08;99071.81;;;19.24;100.00
21240;BME280;10778;48.962;9.018;2023-06-22T00:36:35;99072.00;;;19.22;100.00
21240;BME280;10778;48.962;9.018;2023-06-22T00:39:03;99073.03;;;19.21;100.00
21240;BME280;10778;48.962;9.018;2023-06-22T00:41:30;99066.47;;;19.24;100.00
21240;BME280;10778;48.962;9.018;2023-06-22T00:43:57;99084.13;;;19.25;100.00
21240;BME280;10778;48.962;9.018;2023-06-22T00:46:24;99109.13;;;19.17;100.00
21240;BME280;10778;48.962;9.018;2023-06-22T00:48:51;99119.66;;;19.03;100.00
21240;BME280;10778;48.962;9.018;2023-06-22T00:51:18;99112.28;;;19.05;100.00
21240;BME280;10778;48.962;9.018;2023-06-22T00:53:51;99151.28;;;19.07;100.00
21240;BME280;10778;48.962;9.018;2023-06-22T00:56:17;99185.59;;;18.95;100.00
21240;BME280;10778;48.962;9.018;2023-06-22T00:58:46;99214.75;;;18.96;100.00
21240;BME280;10778;48.962;9.018;2023-06-22T01:01:13;99189.03;;;18.88;100.00
21240;BME280;10778;48.962;9.018;2023-06-22T01:03:39;99161.06;;;18.77;100.00
21240;BME280;10778;48.962;9.018;2023-06-22T01:06:15;99143.34;;;18.91;100.00
21240;BME280;10778;48.962;9.018;2023-06-22T01:08:49;99134.78;;;18.96;100.00
21240;BME280;10778;48.962;9.018;2023-06-22T01:11:39;99124.56;;;19.00;100.00
21240;BME280;10778;48.962;9.018;2023-06-22T01:14:43;99110.88;;;19.03;100.00
21240;BME280;10778;48.962;9.018;2023-06-22T01:17:11;99113.13;;;18.84;100.00
21240;BME280;10778;48.962;9.018;2023-06-22T01:19:49;99110.09;;;18.87;100.00
21240;BME280;10778;48.962;9.018;2023-06-22T01:22:24;99107.16;;;18.82;100.00
21240;BME280;10778;48.962;9.018;2023-06-22T01:25:11;99112.31;;;18.84;100.00
21240;BME280;10778;48.962;9.018;2023-06-22T01:30:20;99094.47;;;18.84;100.00
21240;BME280;10778;48.962;9.018;2023-06-22T01:32:47;99101.81;;;18.82;100.00
21240;BME280;10778;48.962;9.018;2023-06-22T01:35:14;99113.06;;;18.77;100.00
21240;BME280;10778;48.962;9.018;2023-06-22T01:37:41;99105.44;;;18.74;100.00
21240;BME280;10778;48.962;9.018;2023-06-22T01:40:08;99092.13;;;18.74;100.00
21240;BME280;10778;48.962;9.018;2023-06-22T01:42:35;99098.44;;;18.67;100.00
21240;BME280;10778;48.962;9.018;2023-06-22T01:45:03;99094.69;;;18.61;100.00
21240;BME280;10778;48.962;9.018;2023-06-22T01:47:30;99103.25;;;18.56;100.00
21240;BME280;10778;48.962;9.018;2023-06-22T01:49:56;99112.03;;;18.57;100.00
21240;BME280;10778;48.962;9.018;2023-06-22T01:52:23;99112.81;;;18.51;100.00
21240;BME280;10778;48.962;9.018;2023-06-22T01:54:49;99103.00;;;18.51;100.00
21240;BME280;10778;48.962;9.018;2023-06-22T01:57:15;99113.03;;;18.34;100.00
21240;BME280;10778;48.962;9.018;2023-06-22T02:02:31;99110.22;;;18.57;100.00
21240;BME280;10778;48.962;9.018;2023-06-22T02:05:03;99112.03;;;18.57;100.00
21240;BME280;10778;48.962;9.018;2023-06-22T02:07:39;99114.69;;;18.57;100.00
21240;BME280;10778;48.962;9.018;2023-06-22T02:10:07;99131.53;;;18.57;100.00
21240;BME280;10778;48.962;9.018;2023-06-22T02:12:35;99128.56;;;18.67;100.00
21240;BME280;10778;48.962;9.018;2023-06-22T02:15:02;99124.53;;;18.78;100.00
21240;BME280;10778;48.962;9.018;2023-06-22T02:17:29;99117.31;;;18.72;100.00
21240;BME280;10778;48.962;9.018;2023-06-22T02:20:02;99118.59;;;18.76;100.00
21240;BME280;10778;48.962;9.018;2023-06-22T02:22:35;99118.53;;;18.69;100.00
21240;BME280;10778;48.962;9.018;2023-06-22T02:25:02;99112.75;;;18.66;100.00
21240;BME280;10778;48.962;9.018;2023-06-22T02:27:28;99118.44;;;18.62;100.00
21240;BME280;10778;48.962;9.018;2023-06-22T02:29:54;99113.34;;;18.61;100.00
21240;BME280;10778;48.962;9.018;2023-06-22T02:32:20;99097.44;;;18.74;100.00
21240;BME280;10778;48.962;9.018;2023-06-22T02:34:46;99097.91;;;18.78;100.00
21240;BME280;10778;48.962;9.018;2023-06-22T02:37:16;99098.78;;;18.63;100.00
21240;BME280;10778;48.962;9.018;2023-06-22T02:39:42;99105.06;;;18.56;100.00
21240;BME280;10778;48.962;9.018;2023-06-22T02:42:08;99105.66;;;18.51;100.00
21240;BME280;10778;48.962;9.018;2023-06-22T02:44:33;99083.50;;;18.51;100.00
21240;BME280;10778;48.962;9.018;2023-06-22T02:46:59;99082.00;;;18.41;100.00
21240;BME280;10778;48.962;9.018;2023-06-22T02:49:25;99097.91;;;18.34;100.00
21240;BME280;10778;48.962;9.018;2023-06-22T02:51:51;99109.28;;;18.28;100.00
21240;BME280;10778;48.962;9.018;2023-06-22T02:54:20;99096.19;;;18.27;100.00
21240;BME280;10778;48.962;9.018;2023-06-22T02:56:48;99072.84;;;18.29;100.00
21240;BME280;10778;48.962;9.018;2023-06-22T02:59:16;99089.22;;;18.26;100.00
21240;BME280;10778;48.962;9.018;2023-06-22T03:01:44;99088.94;;;18.20;100.00
21240;BME280;10778;48.962;9.018;2023-06-22T03:04:23;99095.94;;;18.07;100.00
21240;BME280;10778;48.962;9.018;2023-06-22T03:06:49;99084.03;;;18.02;100.00
21240;BME280;10778;48.962;9.018;2023-06-22T03:09:17;99089.16;;;18.04;100.00
21240;BME280;10778;48.962;9.018;2023-06-22T03:11:43;99087.69;;;18.01;100.00
21240;BME280;10778;48.962;9.018;2023-06-22T03:14:09;99082.53;;;18.00;100.00
21240;BME280;10778;48.962;9.018;2023-06-22T03:16:35;99077.88;;;18.02;100.00
21240;BME280;10778;48.962;9.018;2023-06-22T03:19:02;99080.16;;;18.05;100.00
21240;BME280;10778;48.962;9.018;2023-06-22T03:21:28;99076.19;;;18.01;100.00
21240;BME280;10778;48.962;9.018;2023-06-22T03:23:55;99072.81;;;18.07;100.00
21240;BME280;10778;48.962;9.018;2023-06-22T03:26:21;99072.81;;;18.07;100.00
21240;BME280;10778;48.962;9.018;2023-06-22T03:28:48;99066.66;;;18.07;100.00
21240;BME280;10778;48.962;9.018;2023-06-22T03:31:15;99068.88;;;18.03;100.00
21240;BME280;10778;48.962;9.018;2023-06-22T03:33:41;99066.56;;;18.00;100.00
21240;BME280;10778;48.962;9.018;2023-06-22T03:36:07;99070.06;;;18.00;100.00
21240;BME280;10778;48.962;9.018;2023-06-22T03:38:34;99070.59;;;17.96;100.00
21240;BME280;10778;48.962;9.018;2023-06-22T03:41:00;99058.31;;;17.80;100.00
21240;BME280;10778;48.962;9.018;2023-06-22T03:43:27;99061.81;;;17.80;100.00
21240;BME280;10778;48.962;9.018;2023-06-22T03:45:55;99073.75;;;17.84;100.00
21240;BME280;10778;48.962;9.018;2023-06-22T03:48:21;99072.72;;;17.85;100.00
21240;BME280;10778;48.962;9.018;2023-06-22T03:50:47;99072.94;;;17.84;100.00
21240;BME280;10778;48.962;9.018;2023-06-22T03:53:13;99064.94;;;17.69;100.00
21240;BME280;10778;48.962;9.018;2023-06-22T03:55:48;99067.28;;;17.72;100.00
21240;BME280;10778;48.962;9.018;2023-06-22T03:58:14;99061.19;;;17.78;100.00
21240;BME280;10778;48.962;9.018;2023-06-22T04:00:40;99056.88;;;17.77;100.00
21240;BME280;10778;48.962;9.018;2023-06-22T04:03:06;99058.16;;;17.81;100.00
21240;BME280;10778;48.962;9.018;2023-06-22T04:05:33;99063.09;;;17.84;100.00
21240;BME280;10778;48.962;9.018;2023-06-22T04:07:59;99060.34;;;17.77;100.00
21240;BME280;10778;48.962;9.018;2023-06-22T04:10:25;99064.75;;;17.85;100.00
21240;BME280;10778;48.962;9.018;2023-06-22T04:12:51;99064.81;;;17.92;100.00
21240;BME280;10778;48.962;9.018;2023-06-22T04:15:17;99057.94;;;17.98;100.00
21240;BME280;10778;48.962;9.018;2023-06-22T04:17:43;99065.41;;;18.02;100.00
21240;BME280;10778;48.962;9.018;2023-06-22T04:20:09;99063.44;;;18.11;100.00
21240;BME280;10778;48.962;9.018;2023-06-22T04:22:35;99054.13;;;18.22;100.00
21240;BME280;10778;48.962;9.018;2023-06-22T04:25:01;99046.06;;;18.37;100.00
21240;BME280;10778;48.962;9.018;2023-06-22T04:27:27;99046.97;;;18.44;100.00
21240;BME280;10778;48.962;9.018;2023-06-22T04:29:53;99046.41;;;18.49;100.00
21240;BME280;10778;48.962;9.018;2023-06-22T04:32:19;99042.41;;;18.60;100.00
21240;BME280;10778;48.962;9.018;2023-06-22T04:34:45;99043.91;;;18.69;100.00
21240;BME280;10778;48.962;9.018;2023-06-22T04:37:11;99035.84;;;18.84;100.00
21240;BME280;10778;48.962;9.018;2023-06-22T04:39:42;99038.56;;;18.98;100.00
21240;BME280;10778;48.962;9.018;2023-06-22T04:42:08;99035.81;;;19.06;100.00
21240;BME280;10778;48.962;9.018;2023-06-22T04:44:34;99035.50;;;19.23;100.00
21240;BME280;10778;48.962;9.018;2023-06-22T04:47:01;99035.81;;;19.41;100.00
21240;BME280;10778;48.962;9.018;2023-06-22T04:49:30;99032.19;;;19.56;100.00
21240;BME280;10778;48.962;9.018;2023-06-22T04:52:00;99020.78;;;19.82;100.00
21240;BME280;10778;48.962;9.018;2023-06-22T04:54:26;99020.22;;;19.94;100.00
21240;BME280;10778;48.962;9.018;2023-06-22T04:56:52;99017.41;;;20.15;100.00
21240;BME280;10778;48.962;9.018;2023-06-22T04:59:23;99013.31;;;20.26;100.00
21240;BME280;10778;48.962;9.018;2023-06-22T05:01:59;99007.59;;;20.50;100.00
21240;BME280;10778;48.962;9.018;2023-06-22T05:04:26;99005.31;;;20.73;100.00
21240;BME280;10778;48.962;9.018;2023-06-22T05:06:54;98998.31;;;20.99;100.00
21240;BME280;10778;48.962;9.018;2023-06-22T05:09:20;99004.44;;;21.13;100.00
21240;BME280;10778;48.962;9.018;2023-06-22T05:11:47;99003.75;;;21.38;98.71
21240;BME280;10778;48.962;9.018;2023-06-22T05:14:13;99004.16;;;21.42;96.97
21240;BME280;10778;48.962;9.018;2023-06-22T05:16:41;99003.06;;;21.63;95.98
21240;BME280;10778;48.962;9.018;2023-06-22T05:19:07;99007.53;;;21.76;95.29
21240;BME280;10778;48.962;9.018;2023-06-22T05:21:33;99002.34;;;21.81;93.75
21240;BME280;10778;48.962;9.018;2023-06-22T05:24:00;99003.47;;;22.06;92.18
21240;BME280;10778;48.962;9.018;2023-06-22T05:26:32;98998.56;;;21.96;92.16
21240;BME280;10778;48.962;9.018;2023-06-22T05:28:59;98995.66;;;22.04;92.55
21240;BME280;10778;48.962;9.018;2023-06-22T05:31:26;98996.44;;;22.37;90.53
21240;BME280;10778;48.962;9.018;2023-06-22T05:33:53;98999.59;;;22.59;90.73
21240;BME280;10778;48.962;9.018;2023-06-22T05:36:19;98992.50;;;22.71;89.81
21240;BME280;10778;48.962;9.018;2023-06-22T05:38:47;98988.31;;;22.76;89.17
21240;BME280;10778;48.962;9.018;2023-06-22T05:41:13;98994.50;;;22.76;88.08
21240;BME280;10778;48.962;9.018;2023-06-22T05:43:40;98987.34;;;22.70;88.99
21240;BME280;10778;48.962;9.018;2023-06-22T05:46:06;98993.69;;;22.76;87.31
21240;BME280;10778;48.962;9.018;2023-06-22T05:48:32;98984.44;;;22.71;86.97
21240;BME280;10778;48.962;9.018;2023-06-22T05:50:58;98988.78;;;22.72;86.80
21240;BME280;10778;48.962;9.018;2023-06-22T05:53:24;98987.50;;;22.94;87.51
21240;BME280;10778;48.962;9.018;2023-06-22T05:55:50;98970.63;;;23.30;86.48
21240;BME280;10778;48.962;9.018;2023-06-22T05:58:16;98983.06;;;23.25;86.10
21240;BME280;10778;48.962;9.018;2023-06-22T06:00:43;98976.47;;;23.27;85.02
21240;BME280;10778;48.962;9.018;2023-06-22T06:03:10;98976.50;;;23.58;84.14
21240;BME280;10778;48.962;9.018;2023-06-22T06:05:36;98973.81;;;23.58;83.82
21240;BME280;10778;48.962;9.018;2023-06-22T06:08:05;98964.44;;;23.49;84.40
21240;BME280;10778;48.962;9.018;2023-06-22T06:10:32;98962.13;;;23.83;82.87
21240;BME280;10778;48.962;9.018;2023-06-22T06:12:59;98968.31;;;24.14;80.94
21240;BME280;10778;48.962;9.018;2023-06-22T06:15:28;98966.81;;;24.42;80.27
21240;BME280;10778;48.962;9.018;2023-06-22T06:17:54;98972.50;;;24.22;79.96
21240;BME280;10778;48.962;9.018;2023-06-22T06:20:22;98964.75;;;24.68;78.17
21240;BME280;10778;48.962;9.018;2023-06-22T06:22:49;98972.03;;;24.91;78.89
21240;BME280;10778;48.962;9.018;2023-06-22T06:25:15;98968.03;;;24.82;77.12
21240;BME280;10778;48.962;9.018;2023-06-22T06:27:48;98965.09;;;24.95;75.94
21240;BME280;10778;48.962;9.018;2023-06-22T06:30:15;98966.50;;;24.86;75.26
21240;BME280;10778;48.962;9.018;2023-06-22T06:32:43;98962.84;;;25.16;76.39
21240;BME280;10778;48.962;9.018;2023-06-22T06:35:12;98978.47;;;25.31;74.14
21240;BME280;10778;48.962;9.018;2023-06-22T06:37:40;98958.44;;;25.39;74.26
21240;BME280;10778;48.962;9.018;2023-06-22T06:40:08;98971.81;;;25.75;74.15
21240;BME280;10778;48.962;9.018;2023-06-22T06:42:37;98969.03;;;25.69;73.46
21240;BME280;10778;48.962;9.018;2023-06-22T06:45:05;98966.50;;;25.80;73.23
21240;BME280;10778;48.962;9.018;2023-06-22T06:47:31;98960.78;;;25.76;72.88
21240;BME280;10778;48.962;9.018;2023-06-22T06:49:57;98963.09;;;26.02;72.17
21240;BME280;10778;48.962;9.018;2023-06-22T06:52:23;98962.97;;;26.42;71.24
21240;BME280;10778;48.962;9.018;2023-06-22T06:54:49;98955.41;;;26.22;70.37
21240;BME280;10778;48.962;9.018;2023-06-22T06:57:18;98962.72;;;26.61;70.23
21240;BME280;10778;48.962;9.018;2023-06-22T06:59:44;98953.81;;;26.61;71.24
21240;BME280;10778;48.962;9.018;2023-06-22T07:02:10;98941.84;;;26.74;68.49
21240;BME280;10778;48.962;9.018;2023-06-22T07:04:35;98941.97;;;26.45;69.65
21240;BME280;10778;48.962;9.018;2023-06-22T07:07:02;98936.47;;;26.91;69.13
21240;BME280;10778;48.962;9.018;2023-06-22T07:09:28;98946.69;;;26.89;68.58
21240;BME280;10778;48.962;9.018;2023-06-22T07:11:54;98938.47;;;26.83;68.13
21240;BME280;10778;48.962;9.018;2023-06-22T07:14:20;98941.34;;;26.77;68.32
21240;BME280;10778;48.962;9.018;2023-06-22T07:16:46;98921.38;;;26.95;67.21
21240;BME280;10778;48.962;9.018;2023-06-22T07:19:13;98922.94;;;27.13;68.04
21240;BME280;10778;48.962;9.018;2023-06-22T07:21:39;98917.94;;;27.00;66.44
21240;BME280;10778;48.962;9.018;2023-06-22T07:24:07;98902.22;;;27.46;67.29
21240;BME280;10778;48.962;9.018;2023-06-22T07:26:34;98908.63;;;27.57;65.95
21240;BME280;10778;48.962;9.018;2023-06-22T07:29:00;98905.66;;;27.36;67.21
21240;BME280;10778;48.962;9.018;2023-06-22T07:31:26;98904.13;;;28.01;64.87
21240;BME280;10778;48.962;9.018;2023-06-22T07:33:52;98899.53;;;28.01;64.11
21240;BME280;10778;48.962;9.018;2023-06-22T07:36:18;98894.19;;;27.74;65.26
21240;BME280;10778;48.962;9.018;2023-06-22T07:38:44;98889.47;;;27.64;65.10
21240;BME280;10778;48.962;9.018;2023-06-22T07:41:13;98880.19;;;27.82;64.64
21240;BME280;10778;48.962;9.018;2023-06-22T07:43:40;98870.09;;;28.48;63.40
21240;BME280;10778;48.962;9.018;2023-06-22T07:46:09;98877.13;;;28.44;62.90
21240;BME280;10778;48.962;9.018;2023-06-22T07:48:37;98887.19;;;28.16;62.61
21240;BME280;10778;48.962;9.018;2023-06-22T07:51:05;98881.47;;;28.50;63.40
21240;BME280;10778;48.962;9.018;2023-06-22T07:53:32;98873.72;;;28.69;60.21
21240;BME280;10778;48.962;9.018;2023-06-22T07:55:58;98885.63;;;28.20;62.26
21240;BME280;10778;48.962;9.018;2023-06-22T07:58:24;98891.38;;;28.29;61.85
21240;BME280;10778;48.962;9.018;2023-06-22T08:00:50;98892.00;;;28.94;59.95
21240;BME280;10778;48.962;9.018;2023-06-22T08:03:17;98884.72;;;29.05;59.78
21240;BME280;10778;48.962;9.018;2023-06-22T08:05:43;98885.94;;;28.72;60.88
21240;BME280;10778;48.962;9.018;2023-06-22T08:08:09;98888.47;;;28.89;60.92
21240;BME280;10778;48.962;9.018;2023-06-22T08:10:36;98886.66;;;29.15;59.42
21240;BME280;10778;48.962;9.018;2023-06-22T08:13:02;98891.66;;;29.60;56.95
21240;BME280;10778;48.962;9.018;2023-06-22T08:15:28;98890.84;;;29.75;56.75
21240;BME280;10778;48.962;9.018;2023-06-22T08:17:54;98897.88;;;29.60;57.29
21240;BME280;10778;48.962;9.018;2023-06-22T08:20:20;98896.22;;;29.44;55.91
21240;BME280;10778;48.962;9.018;2023-06-22T08:22:46;98892.03;;;28.46;58.78
21240;BME280;10778;48.962;9.018;2023-06-22T08:25:12;98894.34;;;28.32;60.48
21240;BME280;10778;48.962;9.018;2023-06-22T08:27:38;98887.19;;;29.02;58.85
21240;BME280;10778;48.962;9.018;2023-06-22T08:30:06;98885.34;;;29.28;58.14
21240;BME280;10778;48.962;9.018;2023-06-22T08:32:32;98888.50;;;28.99;58.22
21240;BME280;10778;48.962;9.018;2023-06-22T08:35:01;98893.91;;;28.46;58.90
21240;BME280;10778;48.962;9.018;2023-06-22T08:37:27;98889.16;;;27.88;60.82
21240;BME280;10778;48.962;9.018;2023-06-22T08:39:58;98901.38;;;27.95;61.94
21240;BME280;10778;48.962;9.018;2023-06-22T08:42:25;98899.19;;;28.25;60.72
21240;BME280;10778;48.962;9.018;2023-06-22T08:44:51;98913.22;;;27.89;61.94
21240;BME280;10778;48.962;9.018;2023-06-22T08:47:17;98912.31;;;27.78;63.25
21240;BME280;10778;48.962;9.018;2023-06-22T08:49:43;98920.31;;;27.18;64.23
21240;BME280;10778;48.962;9.018;2023-06-22T08:52:09;98928.47;;;27.01;64.94
21240;BME280;10778;48.962;9.018;2023-06-22T08:54:35;98937.97;;;27.04;66.24
21240;BME280;10778;48.962;9.018;2023-06-22T08:57:02;98944.53;;;27.13;67.28
21240;BME280;10778;48.962;9.018;2023-06-22T08:59:28;98977.16;;;27.06;68.86
21240;BME280;10778;48.962;9.018;2023-06-22T09:01:54;98999.03;;;26.70;67.68
21240;BME280;10778;48.962;9.018;2023-06-22T09:04:20;98962.69;;;26.95;67.05
21240;BME280;10778;48.962;9.018;2023-06-22T09:06:49;98927.28;;;26.92;67.20
21240;BME280;10778;48.962;9.018;2023-06-22T09:09:16;98931.69;;;27.20;65.44
21240;BME280;10778;48.962;9.018;2023-06-22T09:11:42;98907.28;;;27.60;64.15
21240;BME280;10778;48.962;9.018;2023-06-22T09:14:09;98917.06;;;27.66;64.52
21240;BME280;10778;48.962;9.018;2023-06-22T09:16:35;98892.28;;;27.74;62.27
21240;BME280;10778;48.962;9.018;2023-06-22T09:19:01;98867.84;;;27.96;62.98
21240;BME280;10778;48.962;9.018;2023-06-22T09:21:27;98860.22;;;28.21;62.57
21240;BME280;10778;48.962;9.018;2023-06-22T09:23:53;98859.13;;;28.22;63.74
21240;BME280;10778;48.962;9.018;2023-06-22T09:26:19;98863.06;;;28.47;63.39
21240;BME280;10778;48.962;9.018;2023-06-22T09:28:45;98856.72;;;28.74;62.26
21240;BME280;10778;48.962;9.018;2023-06-22T09:31:11;98836.97;;;28.25;63.32
21240;BME280;10778;48.962;9.018;2023-06-22T09:33:37;98844.72;;;28.11;64.89
21240;BME280;10778;48.962;9.018;2023-06-22T09:36:06;98834.19;;;27.77;65.71
21240;BME280;10778;48.962;9.018;2023-06-22T09:38:36;98831.66;;;27.65;67.08
21240;BME280;10778;48.962;9.018;2023-06-22T09:41:02;98822.56;;;27.76;66.67
21240;BME280;10778;48.962;9.018;2023-06-22T09:43:28;98839.03;;;28.13;66.49
21240;BME280;10778;48.962;9.018;2023-06-22T09:45:54;98829.50;;;29.17;60.21
21240;BME280;10778;48.962;9.018;2023-06-22T09:48:20;98833.66;;;29.81;58.04
21240;BME280;10778;48.962;9.018;2023-06-22T09:50:46;98839.63;;;30.09;58.26
21240;BME280;10778;48.962;9.018;2023-06-22T09:53:12;98831.53;;;30.80;56.29
21240;BME280;10778;48.962;9.018;2023-06-22T09:55:38;98824.81;;;30.68;56.49
21240;BME280;10778;48.962;9.018;2023-06-22T09:58:04;98823.25;;;30.46;57.24
21240;BME280;10778;48.962;9.018;2023-06-22T10:00:30;98827.03;;;30.45;57.45
21240;BME280;10778;48.962;9.018;2023-06-22T10:02:56;98841.31;;;30.82;54.76
21240;BME280;10778;48.962;9.018;2023-06-22T10:05:22;98832.38;;;30.71;55.41
21240;BME280;10778;48.962;9.018;2023-06-22T10:07:48;98828.28;;;30.84;54.98
21240;BME280;10778;48.962;9.018;2023-06-22T10:10:14;98817.66;;;30.87;54.55
21240;BME280;10778;48.962;9.018;2023-06-22T10:12:46;98832.47;;;30.45;55.52
21240;BME280;10778;48.962;9.018;2023-06-22T10:15:12;98822.78;;;30.13;57.04
21240;BME280;10778;48.962;9.018;2023-06-22T10:17:38;98818.72;;;29.94;57.30
21240;BME280;10778;48.962;9.018;2023-06-22T10:20:06;98803.28;;;29.90;57.88
21240;BME280;10778;48.962;9.018;2023-06-22T10:22:42;98788.69;;;30.72;56.39
21240;BME280;10778;48.962;9.018;2023-06-22T10:25:09;98794.66;;;30.69;57.55
21240;BME280;10778;48.962;9.018;2023-06-22T10:27:36;98809.31;;;30.73;56.24
21240;BME280;10778;48.962;9.018;2023-06-22T10:30:02;98793.84;;;30.74;55.07
21240;BME280;10778;48.962;9.018;2023-06-22T10:32:28;98798.78;;;30.56;57.94
21240;BME280;10778;48.962;9.018;2023-06-22T10:34:54;98802.38;;;30.36;57.30
21240;BME280;10778;48.962;9.018;2023-06-22T10:37:20;98783.88;;;30.43;57.91
21240;BME280;10778;48.962;9.018;2023-06-22T10:39:46;98776.53;;;30.49;57.67
21240;BME280;10778;48.962;9.018;2023-06-22T10:42:12;98775.28;;;30.20;58.25
21240;BME280;10778;48.962;9.018;2023-06-22T10:44:38;98773.81;;;30.49;57.47
21240;BME280;10778;48.962;9.018;2023-06-22T10:47:07;98770.84;;;30.50;56.80
21240;BME280;10778;48.962;9.018;2023-06-22T10:49:33;98767.81;;;30.57;56.49
21240;BME280;10778;48.962;9.018;2023-06-22T10:51:58;98769.97;;;30.65;57.42
21240;BME280;10778;48.962;9.018;2023-06-22T10:54:24;98766.66;;;30.79;54.88
21240;BME280;10778;48.962;9.018;2023-06-22T10:56:50;98758.72;;;30.88;56.75
21240;BME280;10778;48.962;9.018;2023-06-22T10:59:16;98762.78;;;30.90;57.05
21240;BME280;10778;48.962;9.018;2023-06-22T11:01:42;98747.75;;;30.98;55.06
21240;BME280;10778;48.962;9.018;2023-06-22T11:04:08;98752.06;;;30.64;56.56
21240;BME280;10778;48.962;9.018;2023-06-22T11:06:34;98753.38;;;30.72;56.13
21240;BME280;10778;48.962;9.018;2023-06-22T11:09:00;98756.03;;;31.22;55.59
21240;BME280;10778;48.962;9.018;2023-06-22T11:11:26;98751.78;;;31.46;55.26
21240;BME280;10778;48.962;9.018;2023-06-22T11:13:52;98755.31;;;31.46;53.93
21240;BME280;10778;48.962;9.018;2023-06-22T11:16:18;98753.69;;;31.75;53.71
21240;BME280;10778;48.962;9.018;2023-06-22T11:18:44;98750.03;;;31.60;54.53
21240;BME280;10778;48.962;9.018;2023-06-22T11:21:10;98743.59;;;31.51;54.91
21240;BME280;10778;48.962;9.018;2023-06-22T11:23:36;98746.41;;;31.01;54.74
21240;BME280;10778;48.962;9.018;2023-06-22T11:26:02;98749.06;;;31.06;55.17
21240;BME280;10778;48.962;9.018;2023-06-22T11:28:28;98752.13;;;30.99;55.05
21240;BME280;10778;48.962;9.018;2023-06-22T11:30:54;98751.38;;;30.88;54.61
21240;BME280;10778;48.962;9.018;2023-06-22T11:33:20;98747.25;;;30.96;55.29
21240;BME280;10778;48.962;9.018;2023-06-22T11:35:46;98744.81;;;30.94;55.83
21240;BME280;10778;48.962;9.018;2023-06-22T11:38:12;98739.53;;;30.69;55.86
21240;BME280;10778;48.962;9.018;2023-06-22T11:40:38;98731.25;;;30.39;56.97
21240;BME280;10778;48.962;9.018;2023-06-22T11:43:04;98741.69;;;29.90;58.02
21240;BME280;10778;48.962;9.018;2023-06-22T11:45:30;98737.31;;;30.10;58.71
21240;BME280;10778;48.962;9.018;2023-06-22T11:47:56;98734.63;;;30.05;58.40
21240;BME280;10778;48.962;9.018;2023-06-22T11:50:22;98736.53;;;29.94;58.38
21240;BME280;10778;48.962;9.018;2023-06-22T11:52:48;98733.84;;;29.94;59.45
21240;BME280;10778;48.962;9.018;2023-06-22T11:55:14;98728.94;;;29.96;58.92
21240;BME280;10778;48.962;9.018;2023-06-22T11:57:53;98734.41;;;29.80;59.66
21240;BME280;10778;48.962;9.018;2023-06-22T12:00:20;98730.31;;;29.78;60.26
21240;BME280;10778;48.962;9.018;2023-06-22T12:02:47;98732.53;;;29.60;60.67
21240;BME280;10778;48.962;9.018;2023-06-22T12:05:13;98740.13;;;29.79;59.93
21240;BME280;10778;48.962;9.018;2023-06-22T12:07:39;98739.56;;;29.82;59.99
21240;BME280;10778;48.962;9.018;2023-06-22T12:10:06;98742.03;;;29.73;59.52
21240;BME280;10778;48.962;9.018;2023-06-22T12:12:32;98749.34;;;29.67;60.39
21240;BME280;10778;48.962;9.018;2023-06-22T12:14:58;98744.72;;;29.68;60.88
21240;BME280;10778;48.962;9.018;2023-06-22T12:17:26;98745.81;;;29.62;61.41
21240;BME280;10778;48.962;9.018;2023-06-22T12:19:52;98756.41;;;29.48;61.83
21240;BME280;10778;48.962;9.018;2023-06-22T12:22:18;98763.44;;;29.44;61.38
21240;BME280;10778;48.962;9.018;2023-06-22T12:24:44;98766.41;;;29.52;61.59
21240;BME280;10778;48.962;9.018;2023-06-22T12:27:10;98765.06;;;29.65;61.08
21240;BME280;10778;48.962;9.018;2023-06-22T12:29:36;98765.06;;;29.65;61.80
21240;BME280;10778;48.962;9.018;2023-06-22T12:32:02;98766.69;;;29.56;63.13
21240;BME280;10778;48.962;9.018;2023-06-22T12:34:28;98757.75;;;29.61;63.41
21240;BME280;10778;48.962;9.018;2023-06-22T12:36:54;98759.09;;;29.43;63.36
21240;BME280;10778;48.962;9.018;2023-06-22T12:39:20;98756.94;;;29.29;64.35
21240;BME280;10778;48.962;9.018;2023-06-22T12:41:46;98747.97;;;29.29;66.46
21240;BME280;10778;48.962;9.018;2023-06-22T12:44:12;98756.38;;;29.32;64.79
21240;BME280;10778;48.962;9.018;2023-06-22T12:46:38;98743.94;;;29.47;64.27
21240;BME280;10778;48.962;9.018;2023-06-22T12:49:04;98746.09;;;29.60;64.81
21240;BME280;10778;48.962;9.018;2023-06-22T12:51:30;98741.44;;;29.87;64.69
21240;BME280;10778;48.962;9.018;2023-06-22T12:53:57;98740.84;;;30.16;64.57
21240;BME280;10778;48.962;9.018;2023-06-22T12:56:23;98733.66;;;30.46;62.30
21240;BME280;10778;48.962;9.018;2023-06-22T12:58:49;98735.38;;;30.87;61.11
21240;BME280;10778;48.962;9.018;2023-06-22T13:01:15;98736.31;;;31.41;58.85